Time;durP1;ratioP1;P1;durP2;ratioP2;P2;SDS_P1;SDS_P2;PMS_P1;PMS_P2;Temp;Humidity;BMP_temperature;BMP_pressure;BME280_temperature;BME280_humidity;BME280_pressure;Samples;Min_cycle;Max_cycle;Signal;HPM_P1;HPM_P2
2021/04/11 00:02:21;;;;;;;;;;;6.20;99.90;;;;;;6882328;28;20478;-67
2021/04/11 00:05:42;;;;;;;;;;;6.20;99.90;;;;;;6859248;28;19913;-66
2021/04/11 00:09:04;;;;;;;;;;;6.30;99.90;;;;;;6867903;28;20024;-67
2021/04/11 00:12:25;;;;;;;;;;;6.20;99.90;;;;;;6883234;28;19936;-67
2021/04/11 00:15:46;;;;;;;;;;;6.30;99.90;;;;;;6874123;28;19913;-67
2021/04/11 00:19:06;;;;;;;;;;;6.30;99.90;;;;;;6884971;28;20263;-68
2021/04/11 00:22:27;;;;;;;;;;;6.40;99.90;;;;;;6894274;28;20417;-66
2021/04/11 00:25:48;;;;;;;;;;;6.50;99.90;;;;;;6879987;28;19920;-67
2021/04/11 00:29:09;;;;;;;;;;;6.50;99.90;;;;;;6894678;28;19921;-69
2021/04/11 00:32:29;;;;;;;;;;;6.50;99.90;;;;;;6883190;28;19914;-69
2021/04/11 00:35:58;;;;;;;;;;;6.60;99.90;;;;;;6880274;28;19956;-68
2021/04/11 00:39:19;;;;;;;;;;;6.50;99.90;;;;;;6881919;28;19937;-68
2021/04/11 00:42:43;;;;;;;;;;;6.50;99.90;;;;;;6901012;28;19913;-68
2021/04/11 00:46:40;;;;;;;;;;;6.60;99.90;;;;;;6869384;28;19914;-68
2021/04/11 00:50:06;;;;;;;;;;;6.70;99.90;;;;;;6860196;28;19917;-68
2021/04/11 00:53:27;;;;;;;;;;;6.70;99.90;;;;;;6878190;28;19920;-67
2021/04/11 00:56:48;;;;;;;;;;;6.70;99.90;;;;;;6881954;28;19959;-68
2021/04/11 01:00:11;;;;;;;;;;;6.80;99.90;;;;;;6899076;28;19964;-68
2021/04/11 01:03:33;;;;;;;;;;;6.80;99.90;;;;;;6880065;28;19927;-66
2021/04/11 01:07:09;;;;;;;;;;;6.80;99.90;;;;;;6882948;28;19952;-69
2021/04/11 01:10:35;;;;;;;;;;;6.90;99.90;;;;;;6874044;28;19959;-69
2021/04/11 01:13:58;;;;;;;;;;;6.90;99.90;;;;;;6879716;28;19920;-69
2021/04/11 01:17:20;;;;;;;;;;;6.90;99.90;;;;;;6883186;28;19917;-68
2021/04/11 01:20:41;;;;;;;;;;;6.90;99.90;;;;;;6878004;28;20269;-69
2021/04/11 01:24:02;;;;;;;;;;;7.00;99.90;;;;;;6878163;28;20499;-68
2021/04/11 01:27:29;;;;;;;;;;;6.90;99.90;;;;;;6881890;28;19918;-68
2021/04/11 01:30:54;;;;;;;;;;;6.90;99.90;;;;;;6890544;28;19945;-67
2021/04/11 01:34:15;;;;;;;;;;;6.90;99.90;;;;;;6879197;28;19914;-67
2021/04/11 01:37:36;;;;;;;;;;;6.90;99.90;;;;;;6882834;28;19928;-67
2021/04/11 01:40:57;;;;;;;;;;;6.90;99.90;;;;;;6873269;28;19956;-67
2021/04/11 01:44:21;;;;;;;;;;;6.90;99.90;;;;;;6880135;28;19918;-66
2021/04/11 01:47:42;;;;;;;;;;;6.90;99.90;;;;;;6873788;28;19925;-66
2021/04/11 01:51:06;;;;;;;;;;;6.80;99.90;;;;;;6889607;28;20262;-66
2021/04/11 01:54:30;;;;;;;;;;;6.80;99.90;;;;;;6881910;28;19918;-68
2021/04/11 01:57:53;;;;;;;;;;;6.80;99.90;;;;;;6871337;28;20071;-66
2021/04/11 02:01:22;;;;;;;;;;;6.80;99.90;;;;;;6875610;28;20305;-67
2021/04/11 02:04:45;;;;;;;;;;;6.80;99.90;;;;;;6878192;28;20346;-67
2021/04/11 02:08:07;;;;;;;;;;;6.80;99.90;;;;;;6876305;28;19921;-68
2021/04/11 02:11:34;;;;;;;;;;;6.80;99.90;;;;;;6877024;28;19917;-68
2021/04/11 02:14:56;;;;;;;;;;;6.90;99.90;;;;;;6883718;28;19913;-69
2021/04/11 02:18:18;;;;;;;;;;;6.90;99.90;;;;;;6869308;28;20132;-69
2021/04/11 02:21:43;;;;;;;;;;;6.90;99.90;;;;;;6866054;28;19918;-68
2021/04/11 02:25:05;;;;;;;;;;;6.90;99.90;;;;;;6890596;28;19932;-68
2021/04/11 02:28:29;;;;;;;;;;;6.90;99.90;;;;;;6874394;28;19914;-69
2021/04/11 02:31:50;;;;;;;;;;;7.00;99.90;;;;;;6883681;28;20301;-69
2021/04/11 02:35:16;;;;;;;;;;;7.00;99.90;;;;;;6875957;28;19914;-68
2021/04/11 02:38:38;;;;;;;;;;;7.00;99.90;;;;;;6873625;28;20362;-66
2021/04/11 02:42:00;;;;;;;;;;;7.10;99.90;;;;;;6869189;28;20428;-66
2021/04/11 02:45:24;;;;;;;;;;;7.00;99.90;;;;;;6883120;28;20004;-68
2021/04/11 02:48:54;;;;;;;;;;;7.00;99.90;;;;;;6883973;28;19913;-67
2021/04/11 02:52:30;;;;;;;;;;;7.10;99.90;;;;;;6878997;28;20278;-66
2021/04/11 02:55:53;;;;;;;;;;;7.10;99.90;;;;;;6903704;28;19916;-67
2021/04/11 02:59:15;;;;;;;;;;;7.10;99.90;;;;;;6880233;28;19949;-67
2021/04/11 03:02:38;;;;;;;;;;;7.10;99.90;;;;;;6886431;28;19913;-67
2021/04/11 03:06:04;;;;;;;;;;;7.10;99.90;;;;;;6881666;28;20008;-69
2021/04/11 03:09:30;;;;;;;;;;;7.10;99.90;;;;;;6884001;28;20374;-69
2021/04/11 03:12:52;;;;;;;;;;;7.20;99.90;;;;;;6900595;28;19913;-68
2021/04/11 03:16:14;;;;;;;;;;;7.20;99.90;;;;;;6876149;28;19917;-67
2021/04/11 03:19:42;;;;;;;;;;;7.20;99.90;;;;;;6885541;28;20030;-68
2021/04/11 03:23:04;;;;;;;;;;;7.20;99.90;;;;;;6881234;28;19917;-69
2021/04/11 03:26:45;;;;;;;;;;;7.30;99.90;;;;;;6878658;28;19918;-68
2021/04/11 03:30:14;;;;;;;;;;;7.20;99.90;;;;;;6895385;28;20417;-68
2021/04/11 03:33:37;;;;;;;;;;;7.10;99.90;;;;;;6879908;28;19913;-68
2021/04/11 03:37:01;;;;;;;;;;;7.20;99.90;;;;;;6895505;28;20346;-68
2021/04/11 03:40:24;;;;;;;;;;;7.20;99.90;;;;;;6878563;28;19921;-69
2021/04/11 03:43:47;;;;;;;;;;;7.20;99.90;;;;;;6883408;28;20377;-66
2021/04/11 03:47:15;;;;;;;;;;;7.20;99.90;;;;;;6867823;28;20240;-66
2021/04/11 03:50:57;;;;;;;;;;;7.20;99.90;;;;;;6873056;28;19918;-66
2021/04/11 03:54:23;;;;;;;;;;;7.30;99.90;;;;;;6865354;28;19922;-66
2021/04/11 03:57:50;;;;;;;;;;;7.30;99.90;;;;;;6856084;28;19929;-69
2021/04/11 04:01:20;;;;;;;;;;;7.30;99.90;;;;;;6867325;28;19917;-66
2021/04/11 04:04:42;;;;;;;;;;;7.30;99.90;;;;;;6878214;28;19948;-69
2021/04/11 04:08:04;;;;;;;;;;;7.30;99.90;;;;;;6861046;28;19932;-68
2021/04/11 04:11:31;;;;;;;;;;;7.40;99.90;;;;;;6875797;28;19920;-66
2021/04/11 04:15:12;;;;;;;;;;;7.40;99.90;;;;;;6883344;28;19927;-67
2021/04/11 04:18:47;;;;;;;;;;;7.40;99.90;;;;;;6873560;28;19945;-68
2021/04/11 04:22:13;;;;;;;;;;;7.40;99.90;;;;;;6857967;28;19913;-68
2021/04/11 04:25:55;;;;;;;;;;;7.40;99.90;;;;;;6866137;28;19968;-69
2021/04/11 04:29:21;;;;;;;;;;;7.50;99.90;;;;;;6887495;28;19924;-69
2021/04/11 04:32:43;;;;;;;;;;;7.50;99.90;;;;;;6878075;28;20011;-66
2021/04/11 04:36:11;;;;;;;;;;;7.60;99.90;;;;;;6869504;28;19914;-68
2021/04/11 04:39:51;;;;;;;;;;;7.60;99.90;;;;;;6870819;28;19917;-67
2021/04/11 04:43:44;;;;;;;;;;;7.50;99.90;;;;;;6891114;28;19917;-70
2021/04/11 04:47:17;;;;;;;;;;;7.50;99.90;;;;;;6871821;28;20239;-70
2021/04/11 04:51:12;;;;;;;;;;;7.50;99.90;;;;;;6886927;28;19922;-67
2021/04/11 04:54:37;;;;;;;;;;;7.50;99.90;;;;;;6899528;28;20012;-66
2021/04/11 04:58:02;;;;;;;;;;;7.50;99.90;;;;;;6880693;28;19924;-67
2021/04/11 05:01:26;;;;;;;;;;;7.50;99.90;;;;;;6889718;28;19917;-67
2021/04/11 05:04:59;;;;;;;;;;;7.50;99.90;;;;;;6898375;28;19921;-67
2021/04/11 05:08:28;;;;;;;;;;;7.50;99.90;;;;;;6872711;28;20004;-67
2021/04/11 05:12:08;;;;;;;;;;;7.50;99.90;;;;;;6870958;28;19913;-67
2021/04/11 05:15:36;;;;;;;;;;;7.50;99.90;;;;;;6879256;28;19949;-67
2021/04/11 05:19:16;;;;;;;;;;;7.60;99.90;;;;;;6879069;28;20362;-68
2021/04/11 05:23:13;;;;;;;;;;;7.60;99.90;;;;;;6851254;28;19917;-68
2021/04/11 05:26:48;;;;;;;;;;;7.70;99.90;;;;;;6860195;28;20017;-67
2021/04/11 05:30:25;;;;;;;;;;;7.60;99.90;;;;;;6857553;28;20004;-67
2021/04/11 05:33:48;;;;;;;;;;;7.70;99.90;;;;;;6854704;28;19953;-67
2021/04/11 05:37:26;;;;;;;;;;;7.70;99.90;;;;;;6868451;28;19937;-67
2021/04/11 05:40:52;;;;;;;;;;;7.70;99.90;;;;;;6870260;28;20317;-67
2021/04/11 05:44:17;;;;;;;;;;;7.80;99.90;;;;;;6871861;28;19920;-67
2021/04/11 05:47:38;;;;;;;;;;;7.80;99.90;;;;;;6867247;28;19952;-66
2021/04/11 05:51:00;;;;;;;;;;;7.80;99.90;;;;;;6865950;28;19918;-67
2021/04/11 05:54:27;;;;;;;;;;;7.80;99.90;;;;;;6869662;28;19925;-67
2021/04/11 05:57:51;;;;;;;;;;;7.80;99.90;;;;;;6863716;28;19949;-66
2021/04/11 06:01:18;;;;;;;;;;;7.80;99.90;;;;;;6864579;28;19917;-69
2021/04/11 06:04:45;;;;;;;;;;;7.90;99.90;;;;;;6879660;28;19933;-66
2021/04/11 06:08:10;;;;;;;;;;;7.90;99.90;;;;;;6882180;28;19949;-66
2021/04/11 06:11:34;;;;;;;;;;;8.00;99.90;;;;;;6878122;28;19913;-66
2021/04/11 06:14:58;;;;;;;;;;;8.00;99.90;;;;;;6871152;28;19983;-67
2021/04/11 06:18:19;;;;;;;;;;;8.20;99.90;;;;;;6871649;28;20263;-66
2021/04/11 06:21:58;;;;;;;;;;;8.30;99.90;;;;;;6862978;28;20015;-70
2021/04/11 06:25:35;;;;;;;;;;;8.40;99.90;;;;;;6859495;28;19921;-66
2021/04/11 06:29:05;;;;;;;;;;;8.60;99.90;;;;;;6846141;28;19936;-67
2021/04/11 06:32:31;;;;;;;;;;;8.50;99.90;;;;;;6898580;28;20666;-68
2021/04/11 06:36:01;;;;;;;;;;;8.60;99.90;;;;;;6872021;28;19913;-66
2021/04/11 06:39:25;;;;;;;;;;;8.50;99.90;;;;;;6863349;28;20378;-67
2021/04/11 06:42:52;;;;;;;;;;;8.40;99.90;;;;;;6874989;28;20411;-68
2021/04/11 06:46:19;;;;;;;;;;;8.50;99.90;;;;;;6866592;28;19914;-68
2021/04/11 06:49:40;;;;;;;;;;;8.40;99.90;;;;;;6865136;28;20016;-68
2021/04/11 06:53:03;;;;;;;;;;;8.50;99.90;;;;;;6883496;28;20027;-68
2021/04/11 06:56:43;;;;;;;;;;;8.50;99.90;;;;;;6875937;28;19921;-69
2021/04/11 07:00:23;;;;;;;;;;;8.50;99.90;;;;;;6871916;28;19917;-68
2021/04/11 07:03:50;;;;;;;;;;;8.60;99.90;;;;;;6854203;28;20363;-68
2021/04/11 07:07:29;;;;;;;;;;;8.70;99.90;;;;;;6880259;28;19914;-67
2021/04/11 07:10:59;;;;;;;;;;;8.60;99.90;;;;;;6859863;28;19914;-66
2021/04/11 07:14:39;;;;;;;;;;;8.70;99.90;;;;;;6863392;28;20390;-69
2021/04/11 07:18:03;;;;;;;;;;;8.60;99.90;;;;;;6874268;28;19921;-69
2021/04/11 07:21:39;;;;;;;;;;;8.60;99.90;;;;;;6892483;28;19921;-67
2021/04/11 07:25:14;;;;;;;;;;;8.70;99.90;;;;;;6878165;28;19917;-68
2021/04/11 07:28:58;;;;;;;;;;;8.80;99.90;;;;;;6883829;28;19917;-69
2021/04/11 07:32:22;;;;;;;;;;;8.80;99.90;;;;;;6866656;28;20378;-66
2021/04/11 07:35:43;;;;;;;;;;;8.80;99.90;;;;;;6852959;28;19918;-70
2021/04/11 07:39:23;;;;;;;;;;;8.80;99.90;;;;;;6869116;28;19921;-67
2021/04/11 07:42:53;;;;;;;;;;;8.80;99.90;;;;;;6891145;28;20043;-67
2021/04/11 07:46:32;;;;;;;;;;;8.80;99.90;;;;;;6897435;28;20278;-66
2021/04/11 07:50:07;;;;;;;;;;;9.00;99.90;;;;;;6877868;28;20285;-66
2021/04/11 07:53:38;;;;;;;;;;;9.00;99.90;;;;;;6889912;28;20005;-67
2021/04/11 07:57:14;;;;;;;;;;;9.20;99.90;;;;;;6884809;28;19937;-68
2021/04/11 08:00:54;;;;;;;;;;;9.20;99.90;;;;;;6896984;28;19963;-66
2021/04/11 08:04:26;;;;;;;;;;;9.20;99.90;;;;;;6879101;28;20539;-66
2021/04/11 08:08:06;;;;;;;;;;;9.20;99.90;;;;;;6899085;28;19956;-68
2021/04/11 08:11:29;;;;;;;;;;;9.20;99.90;;;;;;6871939;28;20036;-68
2021/04/11 08:14:50;;;;;;;;;;;9.30;99.90;;;;;;6903058;28;19912;-69
2021/04/11 08:18:14;;;;;;;;;;;9.40;99.90;;;;;;6878335;28;20285;-68
2021/04/11 08:21:36;;;;;;;;;;;9.60;99.90;;;;;;6892098;28;19978;-67
2021/04/11 08:25:03;;;;;;;;;;;9.70;99.90;;;;;;6884743;28;19917;-66
2021/04/11 08:28:30;;;;;;;;;;;9.70;99.90;;;;;;6879124;28;19992;-67
2021/04/11 08:32:09;;;;;;;;;;;9.80;99.90;;;;;;6899775;28;19913;-67
2021/04/11 08:35:54;;;;;;;;;;;10.00;99.90;;;;;;6873820;28;19917;-68
2021/04/11 08:39:33;;;;;;;;;;;10.30;99.90;;;;;;6875904;28;20027;-68
2021/04/11 08:43:13;;;;;;;;;;;10.50;99.90;;;;;;6878054;28;19917;-69
2021/04/11 08:46:52;;;;;;;;;;;10.70;99.90;;;;;;6875146;28;20028;-66
2021/04/11 08:50:25;;;;;;;;;;;10.70;99.90;;;;;;6870633;28;19921;-67
2021/04/11 08:53:58;;;;;;;;;;;10.80;99.90;;;;;;6904346;28;19940;-67
2021/04/11 08:57:39;;;;;;;;;;;11.10;99.90;;;;;;6886571;28;20003;-66
2021/04/11 09:01:03;;;;;;;;;;;11.10;99.90;;;;;;6871366;28;20354;-67
2021/04/11 09:04:24;;;;;;;;;;;10.90;99.90;;;;;;6872800;28;19917;-66
2021/04/11 09:07:48;;;;;;;;;;;10.90;99.90;;;;;;6870289;28;19920;-66
2021/04/11 09:11:18;;;;;;;;;;;11.00;99.90;;;;;;6886475;28;19917;-70
2021/04/11 09:14:45;;;;;;;;;;;11.10;99.90;;;;;;6873063;28;19917;-69
2021/04/11 09:18:12;;;;;;;;;;;11.10;99.90;;;;;;6869099;28;19924;-70
2021/04/11 09:21:42;;;;;;;;;;;11.10;99.90;;;;;;6902309;28;20127;-70
2021/04/11 09:25:18;;;;;;;;;;;11.10;99.90;;;;;;6879644;28;19936;-69
2021/04/11 09:28:47;;;;;;;;;;;11.10;99.90;;;;;;6871634;28;20000;-69
2021/04/11 09:32:26;;;;;;;;;;;11.10;99.90;;;;;;6875801;28;19996;-69
2021/04/11 09:35:55;;;;;;;;;;;11.10;99.90;;;;;;6878381;28;19917;-67
2021/04/11 09:39:16;;;;;;;;;;;11.10;99.90;;;;;;6860075;28;19918;-67
2021/04/11 09:42:37;;;;;;;;;;;11.30;99.90;;;;;;6876107;28;19914;-68
2021/04/11 09:46:24;;;;;;;;;;;11.30;99.90;;;;;;6869454;28;20302;-68
2021/04/11 09:49:51;;;;;;;;;;;11.40;99.90;;;;;;6874199;28;19963;-68
2021/04/11 09:53:20;;;;;;;;;;;11.50;99.90;;;;;;6892767;28;21116;-70
2021/04/11 09:56:51;;;;;;;;;;;11.40;99.90;;;;;;6876310;28;19921;-71
2021/04/11 10:00:12;;;;;;;;;;;11.40;99.90;;;;;;6875971;28;19940;-70
2021/04/11 10:03:35;;;;;;;;;;;11.50;99.90;;;;;;6861020;28;20429;-69
2021/04/11 10:07:05;;;;;;;;;;;11.40;99.90;;;;;;6864884;28;19968;-66
2021/04/11 10:10:31;;;;;;;;;;;11.50;99.90;;;;;;6853510;28;19945;-67
2021/04/11 10:13:57;;;;;;;;;;;12.00;99.90;;;;;;6867220;28;19925;-68
2021/04/11 10:17:18;;;;;;;;;;;12.50;99.90;;;;;;6857419;28;19968;-66
2021/04/11 10:20:42;;;;;;;;;;;12.90;99.90;;;;;;6878305;28;19921;-69
2021/04/11 10:24:15;;;;;;;;;;;13.00;99.90;;;;;;6890432;28;20503;-67
2021/04/11 10:27:55;;;;;;;;;;;13.00;99.90;;;;;;6871348;28;19949;-67
2021/04/11 10:31:46;;;;;;;;;;;13.40;99.90;;;;;;6856483;28;20370;-69
2021/04/11 10:35:19;;;;;;;;;;;14.00;99.90;;;;;;6862043;28;19914;-67
2021/04/11 10:38:48;;;;;;;;;;;14.30;99.90;;;;;;6888266;28;19917;-67
2021/04/11 10:42:22;;;;;;;;;;;14.10;99.90;;;;;;6863073;28;19913;-67
2021/04/11 10:45:43;;;;;;;;;;;14.50;99.90;;;;;;6876992;28;20012;-67
2021/04/11 10:49:13;;;;;;;;;;;14.30;99.90;;;;;;6866295;28;19928;-67
2021/04/11 10:52:52;;;;;;;;;;;13.80;99.90;;;;;;6881816;28;19913;-68
2021/04/11 10:56:22;;;;;;;;;;;13.50;99.90;;;;;;6876456;28;19968;-66
2021/04/11 10:59:52;;;;;;;;;;;13.30;99.90;;;;;;6879659;28;19936;-67
2021/04/11 11:03:21;;;;;;;;;;;13.20;99.90;;;;;;6873516;28;19920;-67
2021/04/11 11:07:01;;;;;;;;;;;12.90;99.90;;;;;;6892161;28;19913;-67
2021/04/11 11:10:43;;;;;;;;;;;12.80;99.90;;;;;;6908851;28;20325;-70
2021/04/11 11:14:09;;;;;;;;;;;12.60;99.90;;;;;;6874579;28;20354;-67
2021/04/11 11:17:42;;;;;;;;;;;12.50;99.90;;;;;;6887714;28;19917;-68
2021/04/11 11:21:03;;;;;;;;;;;12.60;99.90;;;;;;6864947;28;19918;-67
2021/04/11 11:24:36;;;;;;;;;;;13.20;99.90;;;;;;6883564;28;19960;-67
2021/04/11 11:27:57;;;;;;;;;;;13.00;99.90;;;;;;6871611;28;19921;-66
2021/04/11 11:31:17;;;;;;;;;;;12.70;99.90;;;;;;6887811;28;19914;-68
2021/04/11 11:35:14;;;;;;;;;;;13.30;99.90;;;;;;6880931;28;19913;-66
2021/04/11 11:38:53;;;;;;;;;;;14.10;99.90;;;;;;6819739;28;19924;-66
2021/04/11 11:42:20;;;;;;;;;;;14.00;99.90;;;;;;6881362;28;20382;-69
2021/04/11 11:46:00;;;;;;;;;;;13.90;99.90;;;;;;6880045;28;19971;-69
2021/04/11 11:49:29;;;;;;;;;;;13.60;99.90;;;;;;6881629;28;19945;-66
2021/04/11 11:52:51;;;;;;;;;;;14.00;99.90;;;;;;6877580;28;20480;-68
2021/04/11 11:56:22;;;;;;;;;;;13.70;99.90;;;;;;6879062;28;20343;-69
2021/04/11 12:00:01;;;;;;;;;;;13.50;99.90;;;;;;6882740;28;19921;-69
2021/04/11 12:03:29;;;;;;;;;;;13.30;99.90;;;;;;6893612;28;19920;-67
2021/04/11 12:06:52;;;;;;;;;;;12.90;99.90;;;;;;6882541;28;19920;-67
2021/04/11 12:10:19;;;;;;;;;;;12.70;99.90;;;;;;6885791;28;19917;-68
2021/04/11 12:13:55;;;;;;;;;;;12.40;99.90;;;;;;6880827;28;19947;-69
2021/04/11 12:17:25;;;;;;;;;;;12.30;99.90;;;;;;6881973;28;19940;-69
2021/04/11 12:20:53;;;;;;;;;;;12.30;99.90;;;;;;6868659;28;20653;-67
2021/04/11 12:24:20;;;;;;;;;;;12.30;99.90;;;;;;6884533;28;19914;-67
2021/04/11 12:27:41;;;;;;;;;;;11.80;99.90;;;;;;6859043;28;19914;-70
2021/04/11 12:31:14;;;;;;;;;;;11.40;99.90;;;;;;6877306;28;19920;-67
2021/04/11 12:34:43;;;;;;;;;;;11.20;99.90;;;;;;6883955;28;19952;-67
2021/04/11 12:38:23;;;;;;;;;;;11.10;99.90;;;;;;6864185;28;19922;-70
2021/04/11 12:41:43;;;;;;;;;;;10.90;99.90;;;;;;6864567;28;19921;-68
2021/04/11 12:45:19;;;;;;;;;;;10.70;99.90;;;;;;6870202;28;19928;-69
2021/04/11 12:48:49;;;;;;;;;;;10.30;99.90;;;;;;6860400;28;20243;-67
2021/04/11 12:52:10;;;;;;;;;;;10.20;99.90;;;;;;6866384;28;19918;-70
2021/04/11 12:55:34;;;;;;;;;;;10.20;99.90;;;;;;6869068;28;19914;-70
2021/04/11 12:59:09;;;;;;;;;;;9.90;99.90;;;;;;6865087;28;19918;-70
2021/04/11 13:02:38;;;;;;;;;;;9.90;99.90;;;;;;6881406;28;19953;-70
2021/04/11 13:06:11;;;;;;;;;;;9.80;99.90;;;;;;6859926;28;19921;-69
2021/04/11 13:09:44;;;;;;;;;;;9.80;99.90;;;;;;6871387;28;19917;-69
2021/04/11 13:13:27;;;;;;;;;;;9.80;99.90;;;;;;6862721;28;19965;-69
2021/04/11 13:16:56;;;;;;;;;;;9.60;99.90;;;;;;6870253;28;20404;-69
2021/04/11 13:20:22;;;;;;;;;;;9.50;99.90;;;;;;6883483;28;19924;-69
2021/04/11 13:23:43;;;;;;;;;;;9.30;99.90;;;;;;6860415;28;19931;-70
2021/04/11 13:27:03;;;;;;;;;;;9.30;99.90;;;;;;6882246;28;19996;-70
2021/04/11 13:30:26;;;;;;;;;;;9.20;99.90;;;;;;6878963;28;20015;-70
2021/04/11 13:33:53;;;;;;;;;;;9.10;99.90;;;;;;6874496;28;20460;-69
2021/04/11 13:37:14;;;;;;;;;;;9.00;99.90;;;;;;6871712;28;19952;-69
2021/04/11 13:40:36;;;;;;;;;;;9.00;99.90;;;;;;6887727;28;19985;-71
2021/04/11 13:44:08;;;;;;;;;;;8.80;99.90;;;;;;6897753;28;19917;-67
2021/04/11 13:47:49;;;;;;;;;;;8.80;99.90;;;;;;6867336;28;19921;-67
2021/04/11 13:51:16;;;;;;;;;;;8.70;99.90;;;;;;6859704;28;19914;-67
2021/04/11 13:54:53;;;;;;;;;;;8.80;99.90;;;;;;6858403;28;19913;-70
2021/04/11 13:58:20;;;;;;;;;;;8.70;99.90;;;;;;6895837;28;19925;-69
2021/04/11 14:02:07;;;;;;;;;;;8.50;99.90;;;;;;6864013;28;20264;-70
2021/04/11 14:05:33;;;;;;;;;;;8.40;99.90;;;;;;6874836;28;20277;-69
2021/04/11 14:08:54;;;;;;;;;;;8.20;99.90;;;;;;6860870;28;19913;-69
2021/04/11 14:12:19;;;;;;;;;;;8.00;99.90;;;;;;6880335;28;20015;-70
2021/04/11 14:15:46;;;;;;;;;;;7.90;99.90;;;;;;6873083;28;20016;-69
2021/04/11 14:19:09;;;;;;;;;;;7.90;99.90;;;;;;6873061;28;19971;-70
2021/04/11 14:22:35;;;;;;;;;;;7.90;99.90;;;;;;6876117;28;20016;-70
2021/04/11 14:26:05;;;;;;;;;;;7.90;99.90;;;;;;6877452;28;19913;-70
2021/04/11 14:29:37;;;;;;;;;;;7.80;99.90;;;;;;6893659;28;20039;-68
2021/04/11 14:33:13;;;;;;;;;;;7.80;99.90;;;;;;6868019;28;19914;-70
2021/04/11 14:36:46;;;;;;;;;;;7.70;99.90;;;;;;6858937;28;19913;-70
2021/04/11 14:40:36;;;;;;;;;;;7.80;99.90;;;;;;6874657;28;19917;-70
2021/04/11 14:43:59;;;;;;;;;;;7.70;99.90;;;;;;6861801;28;19924;-70
2021/04/11 14:47:26;;;;;;;;;;;7.60;99.90;;;;;;6885124;28;20266;-70
2021/04/11 14:50:47;;;;;;;;;;;7.60;99.90;;;;;;6886042;28;19953;-70
2021/04/11 14:54:27;;;;;;;;;;;7.60;99.90;;;;;;6887286;28;19913;-70
2021/04/11 14:57:47;;;;;;;;;;;7.60;99.90;;;;;;6882560;28;19917;-69
2021/04/11 15:01:11;;;;;;;;;;;7.70;99.90;;;;;;6886684;28;19921;-69
2021/04/11 15:04:51;;;;;;;;;;;7.60;99.90;;;;;;6895151;28;19925;-69
2021/04/11 15:08:14;;;;;;;;;;;7.60;99.90;;;;;;6899213;28;19917;-68
2021/04/11 15:11:42;;;;;;;;;;;7.50;99.90;;;;;;6903885;28;19971;-66
2021/04/11 15:15:25;;;;;;;;;;;7.40;99.90;;;;;;6882566;28;19957;-67
2021/04/11 15:18:57;;;;;;;;;;;7.50;99.90;;;;;;6908002;28;19917;-67
2021/04/11 15:22:18;;;;;;;;;;;7.50;99.90;;;;;;6881239;28;19914;-70
2021/04/11 15:25:39;;;;;;;;;;;7.50;99.90;;;;;;6886500;28;19924;-71
2021/04/11 15:29:03;;;;;;;;;;;7.40;99.90;;;;;;6874936;28;19914;-68
2021/04/11 15:32:23;;;;;;;;;;;7.40;99.90;;;;;;6897098;28;20688;-68
2021/04/11 15:35:44;;;;;;;;;;;7.40;99.90;;;;;;6885950;28;20023;-70
2021/04/11 15:39:05;;;;;;;;;;;7.40;99.90;;;;;;6880607;28;19922;-69
2021/04/11 15:42:41;;;;;;;;;;;7.50;99.90;;;;;;6892810;28;19925;-70
2021/04/11 15:46:05;;;;;;;;;;;7.60;99.90;;;;;;6878964;28;19960;-70
2021/04/11 15:49:33;;;;;;;;;;;7.70;99.90;;;;;;6883073;28;19945;-68
2021/04/11 15:53:01;;;;;;;;;;;7.70;99.90;;;;;;6898047;28;19974;-67
2021/04/11 15:56:29;;;;;;;;;;;7.60;99.90;;;;;;6891465;28;19917;-66
2021/04/11 16:00:09;;;;;;;;;;;7.50;99.90;;;;;;6904119;28;19940;-66
2021/04/11 16:03:32;;;;;;;;;;;7.50;99.90;;;;;;6882294;28;20000;-68
2021/04/11 16:06:55;;;;;;;;;;;7.60;99.90;;;;;;6885065;28;19917;-68
2021/04/11 16:10:24;;;;;;;;;;;7.60;99.90;;;;;;6895476;28;19913;-67
2021/04/11 16:13:58;;;;;;;;;;;7.70;99.90;;;;;;6887124;28;19913;-67
2021/04/11 16:17:40;;;;;;;;;;;7.60;99.90;;;;;;6873836;28;20251;-67
2021/04/11 16:21:20;;;;;;;;;;;7.60;99.90;;;;;;6887477;28;19917;-66
2021/04/11 16:24:52;;;;;;;;;;;7.40;99.90;;;;;;6893019;28;19913;-67
2021/04/11 16:28:19;;;;;;;;;;;7.30;99.90;;;;;;6878542;28;20259;-66
2021/04/11 16:31:46;;;;;;;;;;;7.30;99.90;;;;;;6883568;28;19919;-65
2021/04/11 16:35:09;;;;;;;;;;;7.20;99.90;;;;;;6871085;28;20507;-65
2021/04/11 16:38:46;;;;;;;;;;;7.20;99.90;;;;;;6870164;28;19922;-68
2021/04/11 16:42:10;;;;;;;;;;;7.10;99.90;;;;;;6879651;28;19914;-68
2021/04/11 16:45:37;;;;;;;;;;;7.00;99.90;;;;;;6881934;28;19917;-68
2021/04/11 16:48:58;;;;;;;;;;;6.90;99.90;;;;;;6883292;28;19917;-68
2021/04/11 16:52:29;;;;;;;;;;;6.90;99.90;;;;;;6884772;28;19914;-67
2021/04/11 16:56:04;;;;;;;;;;;6.80;99.90;;;;;;6863191;28;19914;-70
2021/04/11 16:59:29;;;;;;;;;;;6.70;99.90;;;;;;6871647;28;19928;-70
2021/04/11 17:03:01;;;;;;;;;;;6.80;99.90;;;;;;6877599;28;19933;-69
2021/04/11 17:06:24;;;;;;;;;;;6.80;99.90;;;;;;6866033;28;19921;-70
2021/04/11 17:09:54;;;;;;;;;;;6.70;99.90;;;;;;6867572;28;19967;-69
2021/04/11 17:13:41;;;;;;;;;;;6.60;99.90;;;;;;6860761;28;19917;-67
2021/04/11 17:17:18;;;;;;;;;;;6.60;99.90;;;;;;6831948;28;19924;-69
2021/04/11 17:20:48;;;;;;;;;;;6.50;99.90;;;;;;6880847;28;20370;-69
2021/04/11 17:24:12;;;;;;;;;;;6.50;99.90;;;;;;6864813;28;19918;-68
2021/04/11 17:27:50;;;;;;;;;;;6.50;99.90;;;;;;6867472;28;20025;-68
2021/04/11 17:31:29;;;;;;;;;;;6.50;99.90;;;;;;6878802;28;20044;-67
2021/04/11 17:35:12;;;;;;;;;;;6.60;99.90;;;;;;6860873;28;19918;-67
2021/04/11 17:38:45;;;;;;;;;;;6.50;99.90;;;;;;6878023;28;20356;-67
2021/04/11 17:42:15;;;;;;;;;;;6.50;99.90;;;;;;6866003;28;19961;-67
2021/04/11 17:45:42;;;;;;;;;;;6.50;99.90;;;;;;6878275;28;19921;-67
2021/04/11 17:49:09;;;;;;;;;;;6.50;99.90;;;;;;6858018;28;20387;-68
2021/04/11 17:52:43;;;;;;;;;;;6.40;99.90;;;;;;6847453;28;20027;-69
2021/04/11 17:56:27;;;;;;;;;;;6.40;99.90;;;;;;6859191;28;19920;-69
2021/04/11 17:59:48;;;;;;;;;;;6.40;99.90;;;;;;6849292;28;19972;-69
2021/04/11 18:03:27;;;;;;;;;;;6.40;99.90;;;;;;6876878;28;19959;-67
2021/04/11 18:07:09;;;;;;;;;;;6.30;99.90;;;;;;6867284;28;19917;-67
2021/04/11 18:10:36;;;;;;;;;;;6.30;99.90;;;;;;6896711;28;19937;-68
2021/04/11 18:13:59;;;;;;;;;;;6.30;99.90;;;;;;6892347;28;20273;-69
2021/04/11 18:17:25;;;;;;;;;;;6.30;99.90;;;;;;6881544;28;19959;-69
2021/04/11 18:20:48;;;;;;;;;;;6.20;99.90;;;;;;6892320;28;19921;-67
2021/04/11 18:24:18;;;;;;;;;;;6.20;99.90;;;;;;6887552;28;20028;-67
2021/04/11 18:28:08;;;;;;;;;;;6.20;99.90;;;;;;6882520;28;20325;-69
2021/04/11 18:31:47;;;;;;;;;;;6.20;99.90;;;;;;6858942;28;19929;-68
2021/04/11 18:35:10;;;;;;;;;;;6.10;99.90;;;;;;6859446;28;19937;-68
2021/04/11 18:38:34;;;;;;;;;;;6.10;99.90;;;;;;6870621;28;19921;-69
2021/04/11 18:42:00;;;;;;;;;;;6.20;99.90;;;;;;6864928;28;19913;-67
2021/04/11 18:45:24;;;;;;;;;;;6.10;99.90;;;;;;6868180;28;20338;-68
2021/04/11 18:53:06;;;;;;;;;;;6.10;99.90;;;;;;6879399;28;19918;-69
2021/04/11 18:56:48;;;;;;;;;;;6.10;99.90;;;;;;6888363;28;19913;-68
2021/04/11 19:00:17;;;;;;;;;;;6.10;99.90;;;;;;6873481;28;20436;-70
2021/04/11 19:03:43;;;;;;;;;;;6.20;99.90;;;;;;6878192;28;19917;-70
2021/04/11 19:07:10;;;;;;;;;;;6.10;99.90;;;;;;6875634;28;19921;-69
2021/04/11 19:10:49;;;;;;;;;;;6.10;99.90;;;;;;6895926;28;19914;-70
2021/04/11 19:14:13;;;;;;;;;;;6.10;99.90;;;;;;6873091;28;19932;-69
2021/04/11 19:17:34;;;;;;;;;;;6.10;99.90;;;;;;6877471;28;19929;-70
2021/04/11 19:21:01;;;;;;;;;;;6.00;99.90;;;;;;6885175;28;20275;-69
2021/04/11 19:24:43;;;;;;;;;;;6.00;99.90;;;;;;6869209;28;19921;-68
2021/04/11 19:28:16;;;;;;;;;;;5.90;99.90;;;;;;6906479;28;19949;-66
2021/04/11 19:31:43;;;;;;;;;;;5.90;99.90;;;;;;6880185;28;19917;-67
2021/04/11 19:35:07;;;;;;;;;;;5.90;99.90;;;;;;6867984;28;19914;-70
2021/04/11 19:38:38;;;;;;;;;;;5.90;99.90;;;;;;6872588;28;20286;-70
2021/04/11 19:42:11;;;;;;;;;;;5.90;99.90;;;;;;6871776;28;20424;-69
2021/04/11 19:45:50;;;;;;;;;;;5.90;99.90;;;;;;6882522;28;20011;-69
2021/04/11 19:49:17;;;;;;;;;;;5.90;99.90;;;;;;6869580;28;19968;-69
2021/04/11 19:52:57;;;;;;;;;;;5.90;99.90;;;;;;6878615;28;19921;-67
2021/04/11 19:56:20;;;;;;;;;;;5.80;99.90;;;;;;6896860;28;19919;-69
2021/04/11 19:59:44;;;;;;;;;;;5.80;99.90;;;;;;6915039;28;19917;-69
2021/04/11 20:03:14;;;;;;;;;;;5.80;99.90;;;;;;6878265;28;20381;-70
2021/04/11 20:06:38;;;;;;;;;;;5.80;99.90;;;;;;6892390;28;19913;-69
2021/04/11 20:10:13;;;;;;;;;;;5.80;99.90;;;;;;6889128;28;19917;-70
2021/04/11 20:13:53;;;;;;;;;;;5.80;99.90;;;;;;6886157;28;20358;-70
2021/04/11 20:17:26;;;;;;;;;;;5.70;99.90;;;;;;6897513;28;19913;-67
2021/04/11 20:20:53;;;;;;;;;;;5.80;99.90;;;;;;6876682;28;19917;-70
2021/04/11 20:24:14;;;;;;;;;;;5.80;99.90;;;;;;6883351;28;19952;-70
2021/04/11 20:27:42;;;;;;;;;;;5.70;99.90;;;;;;6879437;28;19913;-70
2021/04/11 20:31:17;;;;;;;;;;;5.80;99.90;;;;;;6899484;28;19941;-70
2021/04/11 20:34:41;;;;;;;;;;;5.80;99.90;;;;;;6887810;28;19914;-70